createdAt,value
2017-06-22T00:01:03.428Z,2.50
2017-06-22T00:03:31.821Z,2.43
2017-06-22T00:06:00.072Z,2.00
2017-06-22T00:08:28.549Z,1.90
2017-06-22T00:10:56.199Z,2.23
2017-06-22T00:13:24.037Z,2.40
2017-06-22T00:15:52.858Z,2.03
2017-06-22T00:18:20.434Z,2.40
2017-06-22T00:20:49.344Z,1.80
2017-06-22T00:23:16.973Z,4.23
2017-06-22T00:25:45.300Z,3.50
2017-06-22T00:28:13.408Z,2.50
2017-06-22T00:30:41.062Z,1.93
2017-06-22T00:33:08.701Z,2.67
2017-06-22T00:35:37.666Z,3.33
2017-06-22T00:38:05.328Z,2.73
2017-06-22T00:40:32.948Z,2.43
2017-06-22T00:43:00.624Z,2.47
2017-06-22T00:45:28.758Z,3.43
2017-06-22T00:47:57.146Z,2.80
2017-06-22T00:50:25.084Z,2.63
2017-06-22T00:52:53.416Z,3.13
2017-06-22T00:55:21.023Z,2.30
2017-06-22T00:57:49.690Z,2.90
2017-06-22T01:00:17.300Z,2.63
2017-06-22T01:02:44.908Z,3.30
2017-06-22T01:05:12.989Z,3.33
2017-06-22T01:07:41.336Z,2.87
2017-06-22T01:10:08.934Z,2.67
2017-06-22T01:12:37.856Z,2.53
2017-06-22T01:15:05.496Z,2.50
2017-06-22T01:17:34.367Z,2.97
2017-06-22T01:20:02.223Z,2.67
2017-06-22T01:22:29.859Z,3.07
2017-06-22T01:24:57.604Z,4.00
2017-06-22T01:27:25.544Z,2.30
2017-06-22T01:29:53.174Z,3.27
2017-06-22T01:32:20.764Z,3.10
2017-06-22T01:34:49.078Z,3.03
2017-06-22T01:37:16.696Z,2.87
2017-06-22T01:39:45.047Z,2.93
2017-06-22T01:42:13.141Z,3.40
2017-06-22T01:44:40.866Z,3.03
2017-06-22T01:47:09.368Z,3.10
2017-06-22T01:49:38.032Z,2.60
2017-06-22T01:52:05.772Z,2.90
2017-06-22T01:54:33.401Z,3.20
2017-06-22T01:57:01.248Z,3.50
2017-06-22T01:59:29.702Z,3.13
2017-06-22T02:01:57.362Z,3.00
2017-06-22T02:04:25.938Z,3.10
2017-06-22T02:06:54.263Z,2.90
2017-06-22T02:09:21.854Z,2.80
2017-06-22T02:11:49.687Z,4.47
2017-06-22T02:14:17.248Z,3.43
2017-06-22T02:16:44.856Z,3.47
2017-06-22T02:19:14.415Z,3.70
2017-06-22T02:21:42.011Z,4.37
2017-06-22T02:24:09.737Z,2.67
2017-06-22T02:26:38.683Z,3.73
2017-06-22T02:29:06.381Z,3.80
2017-06-22T02:31:34.864Z,3.53
2017-06-22T02:34:03.515Z,3.10
2017-06-22T02:36:31.195Z,3.03
2017-06-22T02:38:58.910Z,3.37
2017-06-22T02:41:27.719Z,3.43
2017-06-22T02:43:55.309Z,4.07
2017-06-22T02:46:25.926Z,2.97
2017-06-22T02:48:53.557Z,3.00
2017-06-22T02:51:22.195Z,3.00
2017-06-22T02:53:49.822Z,3.33
2017-06-22T02:56:18.380Z,3.77
2017-06-22T02:58:46.717Z,3.97
2017-06-22T03:01:14.278Z,2.93
2017-06-22T03:03:42.903Z,3.60
2017-06-22T03:06:10.475Z,3.27
2017-06-22T03:08:38.137Z,5.03
2017-06-22T03:11:05.869Z,3.20
2017-06-22T03:13:34.520Z,5.10
2017-06-22T03:16:02.243Z,3.67
2017-06-22T03:18:31.156Z,3.47
2017-06-22T03:20:59.166Z,3.77
2017-06-22T03:23:26.792Z,2.80
2017-06-22T03:25:55.477Z,3.23
2017-06-22T03:28:23.089Z,2.80
2017-06-22T03:30:50.648Z,3.40
2017-06-22T03:33:19.253Z,2.67
2017-06-22T03:35:46.867Z,2.73
2017-06-22T03:38:15.209Z,3.73
2017-06-22T03:40:43.046Z,4.90
2017-06-22T03:43:10.661Z,3.50
2017-06-22T03:45:39.023Z,3.93
2017-06-22T03:48:07.341Z,4.17
2017-06-22T03:50:35.773Z,3.50
2017-06-22T03:53:03.381Z,3.53
2017-06-22T03:55:31.507Z,3.50
2017-06-22T03:57:59.111Z,3.50
2017-06-22T04:00:27.592Z,3.63
2017-06-22T04:02:56.024Z,3.77
2017-06-22T04:05:23.610Z,4.83
2017-06-22T04:07:51.176Z,3.37
2017-06-22T04:10:19.048Z,4.20
2017-06-22T04:12:46.666Z,3.10
2017-06-22T04:15:14.268Z,4.30
2017-06-22T04:17:43.330Z,3.93
2017-06-22T04:20:10.939Z,4.30
2017-06-22T04:22:40.214Z,4.70
2017-06-22T04:25:08.430Z,3.93
2017-06-22T04:27:36.068Z,5.00
2017-06-22T04:30:03.807Z,4.60
2017-06-22T04:32:31.587Z,4.33
2017-06-22T04:34:59.308Z,4.60
2017-06-22T04:37:26.949Z,3.33
2017-06-22T04:39:54.600Z,3.90
2017-06-22T04:42:22.262Z,4.10
2017-06-22T04:44:49.881Z,4.90
2017-06-22T04:47:18.053Z,11.80
2017-06-22T04:49:45.665Z,7.33
2017-06-22T04:52:13.229Z,6.83
2017-06-22T04:54:43.845Z,4.97
2017-06-22T04:57:11.409Z,3.80
2017-06-22T04:59:39.010Z,4.67
2017-06-22T05:02:07.019Z,4.20
2017-06-22T05:04:35.656Z,4.60
2017-06-22T05:07:04.074Z,5.60
2017-06-22T05:09:32.546Z,3.33
2017-06-22T05:12:00.420Z,4.87
2017-06-22T05:14:28.055Z,4.97
2017-06-22T05:16:55.677Z,3.37
2017-06-22T17:47:47.729Z,21.13
2017-06-22T17:50:15.346Z,20.13
2017-06-22T17:52:42.931Z,21.67
2017-06-22T17:55:11.787Z,21.03
2017-06-22T17:57:39.386Z,22.90
2017-06-22T18:00:07.200Z,20.13
2017-06-22T18:02:36.010Z,21.03
2017-06-22T18:05:03.653Z,23.53
2017-06-22T18:07:31.361Z,21.57
2017-06-22T18:09:59.354Z,25.23
2017-06-22T18:12:27.010Z,26.00
2017-06-22T18:14:54.599Z,24.47
2017-06-22T18:17:23.185Z,28.47
2017-06-22T18:19:50.864Z,27.20
2017-06-22T18:22:18.530Z,27.43
2017-06-22T18:24:46.598Z,25.30
2017-06-22T18:27:14.195Z,27.20
2017-06-22T18:29:42.848Z,24.03
2017-06-22T18:32:11.779Z,24.30
2017-06-22T18:34:39.368Z,26.23
2017-06-22T18:37:07.014Z,24.17
2017-06-22T18:39:35.078Z,24.30
2017-06-22T18:42:02.849Z,23.20
2017-06-22T18:44:30.997Z,24.03
2017-06-22T18:46:59.148Z,21.40
2017-06-22T18:49:26.993Z,19.47
2017-06-22T18:51:54.664Z,18.90
2017-06-22T18:54:22.825Z,17.43
2017-06-22T18:56:50.470Z,18.13
2017-06-22T18:59:18.104Z,15.73
2017-06-22T19:01:46.688Z,17.70
2017-06-22T19:04:14.280Z,15.83
2017-06-22T19:06:41.847Z,15.17
2017-06-22T19:09:09.745Z,15.40
2017-06-22T19:11:37.393Z,15.40
2017-06-22T19:14:05.042Z,14.10
2017-06-22T19:16:32.966Z,13.43
2017-06-22T19:19:00.711Z,13.60
2017-06-22T19:21:28.390Z,11.23
2017-06-22T19:23:56.740Z,11.97
2017-06-22T19:26:24.771Z,11.93
2017-06-22T19:28:52.400Z,11.77
2017-06-22T19:31:20.929Z,11.00
2017-06-22T19:33:48.534Z,11.13
2017-06-22T19:36:16.282Z,12.50
2017-06-22T19:38:45.273Z,11.47
2017-06-22T19:41:12.925Z,9.17
2017-06-22T19:43:40.642Z,12.53
2017-06-22T19:46:09.479Z,10.07
2017-06-22T19:48:37.295Z,9.97
2017-06-22T19:51:05.097Z,8.33
2017-06-22T19:53:32.869Z,10.30
2017-06-22T19:56:00.640Z,9.60
2017-06-22T19:58:29.216Z,10.90
2017-06-22T20:00:57.216Z,12.50
2017-06-22T20:03:25.595Z,12.17
2017-06-22T20:05:54.197Z,12.10
2017-06-22T20:08:22.135Z,12.57
2017-06-22T20:10:49.875Z,12.57
2017-06-22T20:13:18.244Z,13.90
2017-06-22T20:15:46.121Z,12.20
2017-06-22T20:18:13.716Z,13.67
2017-06-22T20:20:41.285Z,15.57
2017-06-22T20:23:09.843Z,15.03
2017-06-22T20:25:38.234Z,14.50
2017-06-22T20:28:05.895Z,15.23
2017-06-22T20:30:34.836Z,13.70
2017-06-22T20:33:02.622Z,12.53
2017-06-22T20:35:30.424Z,14.20
2017-06-22T20:37:59.466Z,13.10
2017-06-22T20:40:27.560Z,12.80
2017-06-22T20:42:55.895Z,12.00
2017-06-22T20:45:23.989Z,10.70
2017-06-22T20:47:51.609Z,11.10
2017-06-22T20:50:19.212Z,11.73
2017-06-22T20:52:47.016Z,11.47
2017-06-22T20:55:14.591Z,12.40
2017-06-22T20:57:42.226Z,12.50
2017-06-22T21:00:10.288Z,13.50
2017-06-22T21:02:38.101Z,12.03
2017-06-22T21:05:05.807Z,12.70
2017-06-22T21:07:33.894Z,11.60
2017-06-22T21:10:01.564Z,15.03
2017-06-22T21:12:29.290Z,13.93
2017-06-22T21:14:57.139Z,14.90
2017-06-22T21:17:24.696Z,12.40
2017-06-22T21:19:52.269Z,12.60
2017-06-22T21:22:20.723Z,13.20
2017-06-22T21:24:48.277Z,13.00
2017-06-22T21:27:16.614Z,12.93
2017-06-22T21:29:44.319Z,14.20
2017-06-22T21:32:11.952Z,13.80
2017-06-22T21:34:39.538Z,14.07
2017-06-22T21:37:08.265Z,14.87
2017-06-22T21:39:35.895Z,13.90
2017-06-22T21:42:04.317Z,13.43
2017-06-22T21:44:33.067Z,13.00
2017-06-22T21:47:00.720Z,12.43
2017-06-22T21:49:29.206Z,15.70
2017-06-22T21:51:57.117Z,16.40
2017-06-22T21:54:24.829Z,16.80
2017-06-22T21:56:52.395Z,16.77
2017-06-22T21:59:21.063Z,16.57
2017-06-22T22:01:49.424Z,18.20
2017-06-22T22:04:16.983Z,19.93
2017-06-22T22:06:45.235Z,19.07
2017-06-22T22:09:13.639Z,19.67
2017-06-22T22:11:41.211Z,19.80
2017-06-22T22:14:09.201Z,20.33
2017-06-22T22:16:37.923Z,24.93
2017-06-22T22:19:05.578Z,24.60
2017-06-22T22:21:34.110Z,25.50
2017-06-22T22:24:02.185Z,25.50
2017-06-22T22:26:29.793Z,25.53
2017-06-22T22:28:58.621Z,31.27
2017-06-22T22:31:26.188Z,29.03
2017-06-22T22:33:53.748Z,27.20
2017-06-22T22:36:22.084Z,27.47
2017-06-22T22:38:49.639Z,32.90
2017-06-22T22:41:17.215Z,32.43
2017-06-22T22:43:45.065Z,34.90
2017-06-22T22:46:12.659Z,35.87
2017-06-22T22:48:40.224Z,36.63
2017-06-22T22:51:09.583Z,36.90
2017-06-22T22:53:37.249Z,37.03
